Time;durP1;ratioP1;P1;durP2;ratioP2;P2;SDS_P1;SDS_P2;PMS_P1;PMS_P2;Temp;Humidity;BMP_temperature;BMP_pressure;BME280_temperature;BME280_humidity;BME280_pressure;Samples;Min_cycle;Max_cycle;Signal;HPM_P1;HPM_P2
2021/12/07 00:01:20;;;;;;;3.15;1.30;;;1.50;99.90;;;;;;4978805;28;20022;-74
2021/12/07 00:03:46;;;;;;;3.83;0.98;;;1.50;99.90;;;;;;4996087;28;20029;-74
2021/12/07 00:06:12;;;;;;;2.08;1.02;;;1.50;99.90;;;;;;4996701;28;20026;-74
2021/12/07 00:08:40;;;;;;;2.90;1.13;;;1.50;99.90;;;;;;4977623;28;20027;-74
2021/12/07 00:11:06;;;;;;;3.67;1.25;;;1.50;99.90;;;;;;4996271;28;20033;-74
2021/12/07 00:13:36;;;;;;;2.75;1.10;;;1.60;99.90;;;;;;4995832;28;20030;-74
2021/12/07 00:16:03;;;;;;;3.03;1.63;;;1.50;99.90;;;;;;4996394;28;20149;-74
2021/12/07 00:18:29;;;;;;;4.00;1.80;;;1.60;99.90;;;;;;4995641;28;20060;-74
2021/12/07 00:20:55;;;;;;;2.97;1.65;;;1.60;99.90;;;;;;4978486;28;20018;-74
2021/12/07 00:23:20;;;;;;;4.50;2.00;;;1.60;99.90;;;;;;4978320;28;20034;-74
2021/12/07 00:25:46;;;;;;;3.13;1.73;;;1.60;99.90;;;;;;4978366;28;20026;-74
2021/12/07 00:28:12;;;;;;;2.60;1.65;;;1.60;99.90;;;;;;4978379;28;20041;-74
2021/12/07 00:30:38;;;;;;;4.00;1.95;;;1.60;99.90;;;;;;4978158;28;20030;-74
2021/12/07 00:33:29;;;;;;;3.85;2.05;;;1.70;99.90;;;;;;4995665;28;20030;-74
2021/12/07 00:35:51;;;;;;;4.32;1.80;;;1.70;99.90;;;;;;4994957;28;20058;-74
2021/12/07 00:38:24;;;;;;;5.35;2.00;;;1.70;99.90;;;;;;4995608;28;20062;-74
2021/12/07 00:40:51;;;;;;;3.97;1.73;;;1.70;99.90;;;;;;4978174;28;20022;-74
2021/12/07 00:43:17;;;;;;;4.60;2.17;;;1.60;99.90;;;;;;4977995;28;20494;-74
2021/12/07 00:45:45;;;;;;;3.28;1.85;;;1.70;99.90;;;;;;4995474;28;20030;-74
2021/12/07 00:48:15;;;;;;;4.78;2.10;;;1.70;99.90;;;;;;4995452;28;20031;-74
2021/12/07 00:50:45;;;;;;;3.85;1.85;;;1.70;99.90;;;;;;4995155;28;20030;-74
2021/12/07 00:53:11;;;;;;;5.47;2.70;;;1.70;99.90;;;;;;4977912;28;20080;-74
2021/12/07 00:55:40;;;;;;;5.18;2.22;;;1.70;99.90;;;;;;4995440;28;20030;-74
2021/12/07 00:58:13;;;;;;;6.07;2.63;;;1.70;99.90;;;;;;4995276;28;20018;-74
2021/12/07 01:00:40;;;;;;;5.85;2.85;;;1.70;99.90;;;;;;4977831;28;20081;-75
2021/12/07 01:03:06;;;;;;;4.95;2.38;;;1.70;99.90;;;;;;4995206;28;20018;-74
2021/12/07 01:05:34;;;;;;;5.65;3.05;;;1.80;99.90;;;;;;4995304;28;20041;-74
2021/12/07 01:26:54;;;;;;;6.72;3.05;;;1.70;99.90;;;;;;4995956;28;20037;-75
2021/12/07 01:29:25;;;;;;;8.82;3.75;;;1.70;99.90;;;;;;4994791;28;20034;-75
2021/12/07 01:34:51;;;;;;;6.88;3.67;;;1.70;99.90;;;;;;4995089;28;20495;-75
2021/12/07 01:37:32;;;;;;;10.85;3.38;;;1.60;99.90;;;;;;4994500;28;20033;-75
2021/12/07 01:48:00;;;;;;;9.32;4.07;;;1.70;99.90;;;;;;4994937;28;20372;-74
2021/12/07 02:01:04;;;;;;;10.68;4.72;;;1.60;99.90;;;;;;4994488;28;20116;-74
2021/12/07 02:03:30;;;;;;;8.82;4.65;;;1.60;99.90;;;;;;4976949;28;20026;-74
2021/12/07 02:05:55;;;;;;;7.57;3.90;;;1.60;99.90;;;;;;4994284;28;20113;-74
2021/12/07 02:08:22;;;;;;;11.77;4.53;;;1.60;99.90;;;;;;4994734;28;20030;-74
2021/12/07 02:10:48;;;;;;;10.18;3.72;;;1.60;99.90;;;;;;4994162;28;20034;-74
2021/12/07 02:13:22;;;;;;;11.65;4.28;;;1.60;99.90;;;;;;4976836;28;20058;-74
2021/12/07 02:15:48;;;;;;;13.77;4.53;;;1.60;99.90;;;;;;4994553;28;20402;-74
2021/12/07 02:18:14;;;;;;;9.40;4.38;;;1.60;99.90;;;;;;4994117;28;20026;-74
2021/12/07 02:20:40;;;;;;;9.35;4.32;;;1.60;99.90;;;;;;4976707;28;20025;-74
2021/12/07 02:23:05;;;;;;;10.38;4.03;;;1.60;99.90;;;;;;4994386;28;20029;-74
2021/12/07 02:25:32;;;;;;;12.20;3.15;;;1.70;99.90;;;;;;4994223;28;20109;-76
2021/12/07 02:27:59;;;;;;;17.48;3.70;;;1.80;99.90;;;;;;4976845;28;20399;-76
2021/12/07 02:30:26;;;;;;;10.57;3.33;;;1.90;99.90;;;;;;4977058;28;20030;-76
2021/12/07 02:32:54;;;;;;;14.10;2.58;;;2.00;99.90;;;;;;4997925;28;20054;-76
2021/12/07 02:35:25;;;;;;;6.80;1.00;;;2.20;99.90;;;;;;4980672;28;20056;-76
2021/12/07 02:37:52;;;;;;;18.98;1.85;;;2.40;99.90;;;;;;4980508;28;20022;-76
2021/12/07 02:40:18;;;;;;;20.30;0.95;;;2.60;99.90;;;;;;4997834;28;20093;-77
2021/12/07 02:42:44;;;;;;;10.73;0.47;;;2.90;99.90;;;;;;4998088;28;20026;-77
2021/12/07 02:45:10;;;;;;;14.20;1.48;;;3.20;99.90;;;;;;4980580;28;20027;-77
2021/12/07 02:47:36;;;;;;;15.13;0.60;;;3.30;99.90;;;;;;4980145;28;20058;-77
2021/12/07 02:50:04;;;;;;;7.63;0.10;;;3.50;99.90;;;;;;4997744;28;20053;-76
2021/12/07 02:52:29;;;;;;;3.53;0.10;;;3.60;99.90;;;;;;4997362;28;20042;-76
2021/12/07 02:54:55;;;;;;;6.85;0.17;;;3.80;99.90;;;;;;4980164;28;20034;-77
2021/12/07 02:57:21;;;;;;;4.38;0.45;;;3.90;99.90;;;;;;4998236;28;20101;-77
2021/12/07 02:59:57;;;;;;;4.03;0.43;;;4.00;99.90;;;;;;4979897;28;20022;-77
2021/12/07 03:02:23;;;;;;;5.47;0.00;;;4.10;99.90;;;;;;4997526;28;20109;-77
2021/12/07 03:05:08;;;;;;;4.57;0.57;;;4.10;99.90;;;;;;4979640;28;20081;-77
2021/12/07 03:26:30;;;;;;;6.13;0.08;;;4.20;99.90;;;;;;4997810;28;20101;-77
2021/12/07 03:28:59;;;;;;;3.42;0.10;;;4.20;99.90;;;;;;4997168;28;20030;-77
2021/12/07 03:31:29;;;;;;;3.47;0.00;;;4.20;99.90;;;;;;4996927;28;20025;-77
2021/12/07 03:33:57;;;;;;;6.80;0.30;;;4.20;99.90;;;;;;4978866;28;20034;-77
2021/12/07 03:36:24;;;;;;;4.65;0.00;;;4.20;99.90;;;;;;4996661;28;20026;-77
2021/12/07 03:38:50;;;;;;;2.17;0.00;;;4.20;99.90;;;;;;4979558;28;20092;-76
2021/12/07 03:41:16;;;;;;;9.10;0.40;;;4.20;99.90;;;;;;4979750;28;20022;-76
2021/12/07 03:43:42;;;;;;;3.45;0.00;;;4.20;99.90;;;;;;4996582;28;20081;-77
2021/12/07 03:46:08;;;;;;;2.13;0.10;;;4.10;99.90;;;;;;4996739;28;20030;-77
2021/12/07 03:48:34;;;;;;;9.65;0.20;;;4.10;99.90;;;;;;4996233;28;20030;-77
2021/12/07 03:51:00;;;;;;;3.70;0.15;;;4.00;99.90;;;;;;4978737;28;20065;-77
2021/12/07 03:53:28;;;;;;;4.57;0.13;;;4.10;99.90;;;;;;4996704;28;20050;-77
2021/12/07 03:55:54;;;;;;;4.05;0.00;;;4.10;99.90;;;;;;4996301;28;20029;-77
2021/12/07 03:58:19;;;;;;;8.38;1.40;;;4.10;99.90;;;;;;4996677;28;20065;-75
2021/12/07 04:00:46;;;;;;;7.22;0.10;;;4.10;99.90;;;;;;4995998;28;20088;-76
2021/12/07 04:03:14;;;;;;;4.15;0.45;;;4.10;99.90;;;;;;4996676;28;20027;-76
2021/12/07 04:05:47;;;;;;;7.68;0.08;;;4.10;99.90;;;;;;4978791;28;20026;-76
2021/12/07 04:08:15;;;;;;;6.65;0.00;;;4.00;99.90;;;;;;4978665;28;20034;-75
2021/12/07 04:10:41;;;;;;;5.50;0.20;;;4.00;99.90;;;;;;4996021;28;20494;-76
2021/12/07 04:13:07;;;;;;;3.88;0.25;;;3.80;99.90;;;;;;4996108;28;20439;-76
2021/12/07 04:15:33;;;;;;;8.70;0.15;;;3.80;99.90;;;;;;4996175;28;20050;-76
2021/12/07 04:17:59;;;;;;;6.38;0.10;;;3.70;99.90;;;;;;4996111;28;20027;-76
2021/12/07 04:20:24;;;;;;;14.68;1.08;;;3.60;99.90;;;;;;4996334;28;20106;-76
2021/12/07 04:22:50;;;;;;;3.45;0.00;;;3.50;99.90;;;;;;4996122;28;20471;-76
2021/12/07 04:25:17;;;;;;;4.57;0.22;;;3.50;99.90;;;;;;4978505;28;20435;-76
2021/12/07 04:27:43;;;;;;;12.27;0.55;;;3.40;99.90;;;;;;4995930;28;20387;-77
2021/12/07 04:30:18;;;;;;;1.90;0.00;;;3.30;99.90;;;;;;4976573;28;20049;-77
2021/12/07 04:32:44;;;;;;;7.05;0.00;;;3.30;99.90;;;;;;4976303;28;20023;-76
2021/12/07 04:35:11;;;;;;;4.22;0.10;;;3.20;99.90;;;;;;4996395;28;20052;-76
2021/12/07 04:37:38;;;;;;;5.05;0.38;;;3.20;99.90;;;;;;4996184;28;20535;-75
2021/12/07 04:40:06;;;;;;;8.88;0.08;;;3.20;99.90;;;;;;4978100;28;20026;-75
2021/12/07 04:42:31;;;;;;;5.68;0.10;;;3.10;99.90;;;;;;4995379;28;20153;-76
2021/12/07 04:45:01;;;;;;;5.45;0.30;;;3.10;99.90;;;;;;4978139;28;20069;-76
2021/12/07 04:47:39;;;;;;;3.53;0.20;;;3.00;99.90;;;;;;4995926;28;20057;-76
2021/12/07 04:58:52;;;;;;;7.65;1.08;;;3.00;99.90;;;;;;4955066;29;20130;-76
2021/12/07 05:01:18;;;;;;;5.85;0.32;;;3.00;99.90;;;;;;4987184;28;20069;-76
2021/12/07 05:03:45;;;;;;;5.13;0.57;;;3.00;99.90;;;;;;4995589;28;20030;-76
2021/12/07 05:06:12;;;;;;;4.90;0.35;;;3.00;99.90;;;;;;4995493;28;20129;-76
2021/12/07 05:08:47;;;;;;;6.07;0.63;;;3.00;99.90;;;;;;4977933;28;20026;-76
2021/12/07 05:13:56;;;;;;;10.32;0.88;;;3.00;99.90;;;;;;4995594;28;20058;-75
2021/12/07 05:16:52;;;;;;;14.27;1.10;;;3.00;99.90;;;;;;4978618;28;20026;-75
2021/12/07 05:38:25;;;;;;;9.45;0.90;;;3.00;99.90;;;;;;4995166;28;20026;-76
2021/12/07 05:40:51;;;;;;;3.95;0.30;;;3.00;99.90;;;;;;4994982;28;20027;-76
2021/12/07 05:43:16;;;;;;;1.85;0.10;;;2.90;99.90;;;;;;4995187;28;20030;-75
2021/12/07 05:45:42;;;;;;;7.32;0.32;;;2.90;99.90;;;;;;4995047;28;20133;-75
2021/12/07 05:48:08;;;;;;;3.70;0.22;;;2.80;99.90;;;;;;4995147;28;20447;-75
2021/12/07 05:50:36;;;;;;;9.43;0.63;;;2.80;99.90;;;;;;4977446;28;20058;-76
2021/12/07 05:53:03;;;;;;;6.07;0.35;;;2.70;99.90;;;;;;4994464;28;20027;-76
2021/12/07 05:55:29;;;;;;;6.95;0.65;;;2.70;99.90;;;;;;4977355;28;20038;-76
2021/12/07 05:57:55;;;;;;;7.15;0.15;;;2.60;99.90;;;;;;4977461;28;20387;-76
2021/12/07 06:00:27;;;;;;;9.77;0.38;;;2.60;99.90;;;;;;4977207;28;20431;-76
2021/12/07 06:02:59;;;;;;;6.55;0.00;;;2.50;99.90;;;;;;4995026;28;20391;-75
2021/12/07 06:05:26;;;;;;;4.88;0.38;;;2.50;99.90;;;;;;4976449;28;20037;-76
2021/12/07 06:07:52;;;;;;;4.22;0.20;;;2.40;99.90;;;;;;4977320;28;20023;-75
2021/12/07 06:10:18;;;;;;;12.88;1.10;;;2.30;99.90;;;;;;4977528;28;20041;-75
2021/12/07 06:12:44;;;;;;;10.27;0.28;;;2.20;99.90;;;;;;4977009;28;20029;-75
2021/12/07 06:15:11;;;;;;;5.20;0.10;;;2.20;99.90;;;;;;4976726;28;20027;-75
2021/12/07 06:17:37;;;;;;;8.45;0.32;;;2.10;99.90;;;;;;4995008;28;20371;-75
2021/12/07 06:20:04;;;;;;;4.35;0.25;;;2.00;99.90;;;;;;4994493;28;20026;-74
2021/12/07 06:22:30;;;;;;;3.97;0.55;;;2.00;99.90;;;;;;4994997;28;20026;-74
2021/12/07 06:24:55;;;;;;;11.60;0.47;;;1.90;99.90;;;;;;4994922;28;20482;-74
2021/12/07 06:27:21;;;;;;;5.47;0.10;;;1.90;99.90;;;;;;4995506;28;20077;-74
2021/12/07 06:29:47;;;;;;;12.85;0.95;;;1.80;99.90;;;;;;4977624;28;20073;-74
2021/12/07 06:32:12;;;;;;;6.60;0.98;;;1.80;99.90;;;;;;4994043;28;20118;-74
2021/12/07 06:34:38;;;;;;;5.72;0.10;;;1.80;99.90;;;;;;4995340;28;20027;-73
2021/12/07 06:37:04;;;;;;;10.43;0.65;;;1.80;99.90;;;;;;4994871;28;20019;-74
2021/12/07 06:39:30;;;;;;;3.72;0.40;;;1.80;99.90;;;;;;4994195;28;20037;-73
2021/12/07 06:41:56;;;;;;;11.38;0.57;;;1.80;99.90;;;;;;4977407;28;20025;-73
2021/12/07 06:44:22;;;;;;;2.58;0.38;;;1.70;99.90;;;;;;4994936;28;20026;-74
2021/12/07 06:46:48;;;;;;;8.10;0.30;;;1.70;99.90;;;;;;4977556;28;20160;-74
2021/12/07 06:49:18;;;;;;;14.18;1.48;;;1.70;99.90;;;;;;4994485;28;20023;-75
2021/12/07 06:51:44;;;;;;;7.63;0.25;;;1.80;99.90;;;;;;4977219;28;20089;-75
2021/12/07 06:54:10;;;;;;;4.57;0.28;;;1.80;99.90;;;;;;4994801;28;20391;-76
2021/12/07 06:56:36;;;;;;;7.13;0.30;;;1.90;99.90;;;;;;4994430;28;20029;-76
2021/12/07 06:59:03;;;;;;;13.32;1.45;;;1.80;99.90;;;;;;4976841;28;20025;-76
2021/12/07 07:01:28;;;;;;;12.43;0.55;;;1.80;99.90;;;;;;4977603;28;20022;-76
2021/12/07 07:03:54;;;;;;;11.48;0.35;;;1.80;99.90;;;;;;4995328;28;20451;-75
2021/12/07 07:06:20;;;;;;;6.20;0.17;;;1.90;99.90;;;;;;4977377;28;20387;-75
2021/12/07 07:08:45;;;;;;;2.20;0.40;;;1.90;99.90;;;;;;4993947;28;20030;-76
2021/12/07 07:11:11;;;;;;;3.83;0.77;;;1.90;99.90;;;;;;4977512;28;20029;-75
2021/12/07 07:13:39;;;;;;;7.75;0.25;;;2.00;99.90;;;;;;4991737;28;20069;-77
2021/12/07 07:16:04;;;;;;;3.03;0.65;;;2.00;99.90;;;;;;4990856;28;20554;-75
2021/12/07 07:18:30;;;;;;;10.60;0.68;;;2.00;99.90;;;;;;4995353;28;20018;-75
2021/12/07 07:20:56;;;;;;;11.13;1.05;;;2.00;99.90;;;;;;4980228;28;20391;-75
2021/12/07 07:23:23;;;;;;;8.57;0.65;;;2.00;99.90;;;;;;4997730;28;20368;-75
2021/12/07 07:25:49;;;;;;;2.83;0.50;;;2.00;99.90;;;;;;4991726;28;20031;-74
2021/12/07 07:28:15;;;;;;;10.50;0.47;;;2.10;99.90;;;;;;4979718;28;20080;-74
2021/12/07 07:30:41;;;;;;;4.75;0.20;;;2.10;99.90;;;;;;4972946;28;20034;-74
2021/12/07 07:33:07;;;;;;;3.72;0.20;;;2.20;99.90;;;;;;4979950;28;20050;-74
2021/12/07 07:35:32;;;;;;;7.35;0.10;;;2.20;99.90;;;;;;4979790;28;20015;-74
2021/12/07 07:37:58;;;;;;;2.80;0.57;;;2.20;99.90;;;;;;4979615;28;20184;-75
2021/12/07 07:40:24;;;;;;;11.05;0.30;;;2.30;99.90;;;;;;4997125;28;20026;-76
2021/12/07 07:42:50;;;;;;;2.88;0.40;;;2.30;99.90;;;;;;4996963;28;20034;-75
2021/12/07 07:45:16;;;;;;;8.98;0.50;;;2.40;99.90;;;;;;4996985;28;20034;-76
2021/12/07 07:47:42;;;;;;;10.15;0.70;;;2.40;99.90;;;;;;4996820;28;20031;-76
2021/12/07 07:50:11;;;;;;;2.08;0.45;;;2.50;99.90;;;;;;4997065;28;20037;-76
2021/12/07 07:52:36;;;;;;;5.72;0.10;;;2.50;99.90;;;;;;4997533;28;20399;-76
2021/12/07 07:55:06;;;;;;;3.97;0.30;;;2.50;99.90;;;;;;4996106;28;20027;-76
2021/12/07 07:57:32;;;;;;;3.10;0.00;;;2.50;99.90;;;;;;4979161;28;20153;-76
2021/12/07 07:59:58;;;;;;;6.03;0.30;;;2.50;99.90;;;;;;4978399;28;20022;-75
2021/12/07 08:02:23;;;;;;;7.40;0.15;;;2.50;99.90;;;;;;4996879;28;20041;-75
2021/12/07 08:04:49;;;;;;;6.20;0.85;;;2.60;99.90;;;;;;4996808;28;20023;-76
2021/12/07 08:07:15;;;;;;;3.13;0.03;;;2.60;99.90;;;;;;4996847;28;20023;-76
2021/12/07 08:09:40;;;;;;;4.85;0.10;;;2.70;99.90;;;;;;4978810;28;20033;-76
2021/12/07 08:12:06;;;;;;;2.92;0.22;;;2.70;99.90;;;;;;4995953;28;20157;-76
2021/12/07 08:14:33;;;;;;;3.38;0.55;;;2.80;99.90;;;;;;4996476;28;20062;-76
2021/12/07 08:16:59;;;;;;;11.45;1.05;;;2.90;99.90;;;;;;4996385;28;20025;-75
2021/12/07 08:19:24;;;;;;;6.60;0.30;;;2.90;99.90;;;;;;4978997;28;20113;-76
2021/12/07 08:21:50;;;;;;;10.00;0.55;;;3.00;99.90;;;;;;4995748;28;20490;-76
2021/12/07 08:24:16;;;;;;;8.15;0.20;;;3.10;99.90;;;;;;4978118;28;20454;-76
2021/12/07 08:26:42;;;;;;;1.70;0.17;;;3.10;99.90;;;;;;4995642;28;20026;-75
2021/12/07 08:29:07;;;;;;;7.78;0.55;;;3.30;99.90;;;;;;4977223;28;20479;-75
2021/12/07 08:31:33;;;;;;;6.45;0.35;;;3.40;99.90;;;;;;4995316;28;20171;-75
2021/12/07 08:34:00;;;;;;;11.32;0.40;;;3.40;99.90;;;;;;4978265;28;20035;-76
2021/12/07 08:36:27;;;;;;;6.47;0.63;;;3.40;99.90;;;;;;4994935;28;20045;-76
2021/12/07 08:38:53;;;;;;;5.05;0.80;;;3.50;99.90;;;;;;4977694;28;20487;-75
2021/12/07 08:41:19;;;;;;;9.73;0.45;;;3.50;99.90;;;;;;4994735;28;20076;-76
2021/12/07 08:43:45;;;;;;;8.93;0.45;;;3.50;99.90;;;;;;4962023;28;20069;-75
2021/12/07 08:46:13;;;;;;;15.57;2.25;;;3.60;99.90;;;;;;4978198;28;20125;-76
2021/12/07 08:48:41;;;;;;;9.35;0.85;;;3.60;99.90;;;;;;4977483;28;20026;-76
2021/12/07 08:51:09;;;;;;;12.30;1.33;;;3.50;99.90;;;;;;4995386;28;20117;-76
2021/12/07 08:53:42;;;;;;;4.40;0.20;;;3.60;99.90;;;;;;4995644;28;20491;-76
2021/12/07 09:01:35;;;;;;;7.43;0.47;;;3.60;99.90;;;;;;4994865;28;20032;-76
2021/12/07 09:04:04;;;;;;;4.65;0.25;;;3.70;99.90;;;;;;4977175;28;20046;-76
2021/12/07 09:06:32;;;;;;;9.05;0.70;;;3.90;99.90;;;;;;4994875;28;20026;-76
2021/12/07 09:08:58;;;;;;;7.45;0.25;;;4.00;99.90;;;;;;4993958;28;20026;-76
2021/12/07 09:11:25;;;;;;;4.65;0.20;;;4.10;99.90;;;;;;4977350;28;20026;-76
2021/12/07 09:13:51;;;;;;;8.35;0.40;;;4.30;99.90;;;;;;4994723;28;20489;-76
2021/12/07 09:16:19;;;;;;;6.47;0.60;;;4.30;99.90;;;;;;4977623;28;20018;-76
2021/12/07 09:18:46;;;;;;;4.93;0.22;;;4.40;99.90;;;;;;4993793;28;20023;-76
2021/12/07 09:21:12;;;;;;;6.25;0.60;;;4.40;99.90;;;;;;4994894;28;20050;-76
2021/12/07 09:23:38;;;;;;;6.88;0.93;;;4.40;99.90;;;;;;4994793;28;20415;-76
2021/12/07 09:26:05;;;;;;;11.52;1.00;;;4.30;99.90;;;;;;4977248;28;20074;-75
2021/12/07 09:28:31;;;;;;;7.35;0.38;;;4.30;99.90;;;;;;4976035;28;20018;-76
2021/12/07 09:30:57;;;;;;;10.07;0.55;;;4.20;99.90;;;;;;4977582;28;20033;-75
2021/12/07 09:33:25;;;;;;;7.15;1.30;;;4.30;99.90;;;;;;4994522;28;20094;-76
2021/12/07 09:35:53;;;;;;;8.57;0.50;;;4.20;99.90;;;;;;4995376;28;20025;-76
2021/12/07 09:38:19;;;;;;;9.73;0.57;;;4.20;99.90;;;;;;4977485;28;20018;-76
2021/12/07 09:40:45;;;;;;;10.70;0.40;;;4.30;99.90;;;;;;4994768;28;20069;-75
2021/12/07 09:43:12;;;;;;;15.13;1.50;;;4.30;99.90;;;;;;4995299;28;20026;-75
2021/12/07 09:45:39;;;;;;;5.47;0.73;;;4.40;99.90;;;;;;4976696;28;20114;-76
2021/12/07 09:48:07;;;;;;;14.20;2.13;;;4.40;99.90;;;;;;4976800;28;20073;-76
2021/12/07 09:50:34;;;;;;;14.18;1.15;;;4.40;99.90;;;;;;4993594;28;20026;-75
2021/12/07 09:53:07;;;;;;;10.82;1.63;;;4.50;99.90;;;;;;4976703;28;20384;-75
2021/12/07 09:55:33;;;;;;;14.75;1.00;;;4.50;99.90;;;;;;4994527;28;20049;-76
2021/12/07 09:57:59;;;;;;;8.85;1.38;;;4.50;99.90;;;;;;4993467;28;20129;-76
2021/12/07 10:00:26;;;;;;;11.75;1.20;;;4.70;99.90;;;;;;4983558;28;20027;-76
2021/12/07 10:02:53;;;;;;;13.63;2.60;;;4.70;99.90;;;;;;4993918;28;20439;-76
2021/12/07 10:05:20;;;;;;;9.52;1.42;;;4.70;99.90;;;;;;4993853;28;20116;-76
2021/12/07 10:07:48;;;;;;;8.68;1.70;;;4.80;99.90;;;;;;4993716;28;20042;-76
2021/12/07 10:10:29;;;;;;;16.02;1.58;;;4.90;99.90;;;;;;4994455;28;20209;-76
2021/12/07 10:12:55;;;;;;;11.60;1.25;;;5.00;99.90;;;;;;4976531;28;20384;-76
2021/12/07 10:15:21;;;;;;;15.20;1.52;;;5.10;99.90;;;;;;4993517;28;20096;-75
2021/12/07 10:18:06;;;;;;;16.17;1.33;;;5.10;99.90;;;;;;4975492;28;20026;-76
2021/12/07 10:20:41;;;;;;;9.95;1.98;;;5.20;99.90;;;;;;4976343;28;20035;-76
2021/12/07 10:23:30;;;;;;;15.73;2.60;;;5.20;99.90;;;;;;4994462;28;20029;-76
2021/12/07 10:26:01;;;;;;;17.60;2.90;;;5.30;99.90;;;;;;4994488;28;20026;-76
2021/12/07 10:28:33;;;;;;;13.63;1.95;;;5.30;99.90;;;;;;4994109;28;20492;-77
2021/12/07 10:31:10;;;;;;;11.50;1.98;;;5.40;99.90;;;;;;4993940;28;20089;-76
2021/12/07 10:33:41;;;;;;;15.35;2.53;;;5.40;99.90;;;;;;4993947;28;20112;-77
2021/12/07 10:36:16;;;;;;;11.15;2.08;;;5.50;99.90;;;;;;4994072;28;20472;-76
2021/12/07 10:38:46;;;;;;;13.32;2.85;;;5.50;99.90;;;;;;4976956;28;20023;-76
2021/12/07 10:41:15;;;;;;;6.72;1.70;;;5.60;99.90;;;;;;4976811;28;20101;-77
2021/12/07 10:43:54;;;;;;;11.95;1.17;;;5.60;99.90;;;;;;4976553;28;20018;-77
2021/12/07 10:46:30;;;;;;;9.50;1.92;;;5.70;99.90;;;;;;4994187;28;20037;-77
2021/12/07 10:49:17;;;;;;;11.88;2.53;;;5.70;99.90;;;;;;4994122;28;20476;-76
2021/12/07 10:51:54;;;;;;;21.38;2.40;;;5.80;99.90;;;;;;4976585;28;20169;-77
2021/12/07 10:54:21;;;;;;;10.75;1.63;;;5.80;99.90;;;;;;4997815;28;20039;-77
2021/12/07 10:56:47;;;;;;;12.20;1.80;;;5.90;99.90;;;;;;4980191;28;20066;-77
2021/12/07 10:59:13;;;;;;;26.60;2.20;;;5.90;99.90;;;;;;4980456;28;20050;-77
2021/12/07 11:01:42;;;;;;;11.70;1.65;;;6.00;99.90;;;;;;4979875;28;20105;-77
2021/12/07 11:04:31;;;;;;;9.18;1.90;;;6.00;99.90;;;;;;4997875;28;20027;-77
2021/12/07 11:07:17;;;;;;;11.52;2.08;;;6.10;99.90;;;;;;4979994;28;20027;-77
2021/12/07 11:09:45;;;;;;;13.00;1.30;;;6.10;99.90;;;;;;4979787;28;20029;-77
2021/12/07 11:12:14;;;;;;;10.30;1.67;;;6.10;99.90;;;;;;4997546;28;20475;-77
2021/12/07 11:14:47;;;;;;;18.90;2.20;;;6.10;99.90;;;;;;4997125;28;20042;-77
2021/12/07 11:17:13;;;;;;;15.45;1.50;;;6.20;99.90;;;;;;4980077;28;20035;-77
2021/12/07 11:19:38;;;;;;;9.85;1.80;;;6.30;99.90;;;;;;4979677;28;20399;-77
2021/12/07 11:22:04;;;;;;;11.65;1.63;;;6.30;99.90;;;;;;4979647;28;20157;-77
2021/12/07 11:24:43;;;;;;;15.82;2.38;;;6.30;99.90;;;;;;4978856;28;20038;-77
2021/12/07 11:30:05;;;;;;;7.57;1.50;;;6.40;99.90;;;;;;4996993;28;20042;-75
2021/12/07 11:32:31;;;;;;;24.73;1.95;;;6.40;99.90;;;;;;4979350;28;20069;-76
2021/12/07 11:35:28;;;;;;;11.88;1.30;;;6.50;99.90;;;;;;4996889;28;20061;-77
2021/12/07 11:37:56;;;;;;;8.25;1.30;;;6.60;99.90;;;;;;4978464;28;20030;-76
2021/12/07 11:40:31;;;;;;;14.77;1.55;;;6.60;99.90;;;;;;4995913;28;20034;-76
2021/12/07 11:42:57;;;;;;;12.80;1.48;;;6.70;99.90;;;;;;4977945;28;20030;-75
2021/12/07 11:45:30;;;;;;;14.23;2.03;;;6.70;99.90;;;;;;4996792;28;20014;-75
2021/12/07 11:47:56;;;;;;;13.73;1.40;;;6.80;99.90;;;;;;4996504;28;20502;-76
2021/12/07 11:50:29;;;;;;;8.27;1.52;;;6.80;99.90;;;;;;4996633;28;20022;-76
2021/12/07 11:52:59;;;;;;;8.75;0.95;;;6.80;99.90;;;;;;4996261;28;20088;-72
2021/12/07 11:55:26;;;;;;;9.88;1.95;;;6.80;99.90;;;;;;4996656;28;20025;-75
2021/12/07 11:57:53;;;;;;;13.45;1.77;;;6.70;99.90;;;;;;4996640;28;20029;-77
2021/12/07 12:00:23;;;;;;;8.95;0.95;;;6.70;99.90;;;;;;4996263;28;20026;-76
2021/12/07 12:02:49;;;;;;;8.50;0.77;;;6.80;99.90;;;;;;4979005;28;20113;-77
2021/12/07 12:05:16;;;;;;;7.55;0.60;;;6.70;99.90;;;;;;4995307;28;20068;-77
2021/12/07 12:07:44;;;;;;;8.32;0.60;;;6.70;99.90;;;;;;4979000;28;20361;-76
2021/12/07 12:10:12;;;;;;;11.68;1.00;;;6.70;99.90;;;;;;4996263;28;20086;-76
2021/12/07 12:12:54;;;;;;;11.40;1.47;;;6.70;99.90;;;;;;4978843;28;20014;-76
2021/12/07 12:15:38;;;;;;;11.00;1.10;;;6.70;99.90;;;;;;4996245;28;20046;-77
2021/12/07 12:18:35;;;;;;;12.18;1.60;;;6.70;99.90;;;;;;4996278;28;20034;-77
2021/12/07 12:21:16;;;;;;;7.70;0.60;;;6.80;99.90;;;;;;4996167;28;20034;-77
2021/12/07 12:24:20;;;;;;;8.10;0.80;;;6.90;99.90;;;;;;4979556;28;20464;-76
2021/12/07 12:26:47;;;;;;;13.40;1.40;;;6.90;99.90;;;;;;4983195;28;20117;-76
2021/12/07 12:29:25;;;;;;;6.53;0.63;;;6.90;99.90;;;;;;4995826;28;20109;-76
2021/12/07 12:31:54;;;;;;;7.13;0.30;;;7.00;99.90;;;;;;4996015;28;20104;-77
2021/12/07 12:34:26;;;;;;;7.88;0.65;;;7.00;99.90;;;;;;4978830;28;20031;-76
2021/12/07 12:37:07;;;;;;;6.95;0.80;;;6.90;99.90;;;;;;4995923;28;20033;-74
2021/12/07 12:39:46;;;;;;;7.03;0.40;;;6.80;99.90;;;;;;4995721;28;20023;-75
2021/12/07 12:42:15;;;;;;;;;;;6.80;99.90;;;;;;4978419;28;20441;-75
2021/12/07 12:44:41;;;;;;;9.10;0.63;;;6.80;99.90;;;;;;4995377;28;19905;-75
2021/12/07 12:47:07;;;;;;;6.60;0.80;;;6.80;99.90;;;;;;4995394;28;20033;-74
2021/12/07 12:49:38;;;;;;;4.68;0.43;;;6.80;99.90;;;;;;4995252;28;20038;-76
2021/12/07 12:52:04;;;;;;;5.82;1.00;;;6.80;99.90;;;;;;4995244;28;20042;-76
2021/12/07 12:54:43;;;;;;;14.15;1.27;;;6.80;99.90;;;;;;4977813;28;20369;-77
2021/12/07 12:57:15;;;;;;;11.82;1.42;;;6.80;99.90;;;;;;4977842;28;20387;-76
2021/12/07 12:59:44;;;;;;;8.68;0.43;;;6.70;99.90;;;;;;4995055;28;20102;-76
2021/12/07 13:02:10;;;;;;;;;;;6.70;99.90;;;;;;4995468;28;20037;-74
2021/12/07 13:04:36;;;;;;;6.13;0.60;;;6.60;99.90;;;;;;4995413;28;19906;-75
2021/12/07 13:09:37;;;;;;;4.43;0.43;;;6.60;99.90;;;;;;4994970;28;20038;-76
2021/12/07 13:12:19;;;;;;;7.97;0.35;;;6.50;99.90;;;;;;4995631;28;20033;-76
2021/12/07 13:15:10;;;;;;;9.18;0.80;;;6.40;99.90;;;;;;4994494;28;20034;-75
2021/12/07 13:17:48;;;;;;;11.73;0.80;;;6.30;99.90;;;;;;4995684;28;20350;-75
2021/12/07 13:20:24;;;;;;;6.15;0.40;;;6.30;99.90;;;;;;4994952;28;20030;-75
2021/12/07 13:23:10;;;;;;;7.57;0.65;;;6.20;99.90;;;;;;4994962;28;20023;-75
2021/12/07 13:25:49;;;;;;;8.00;0.50;;;6.20;99.90;;;;;;4995491;28;20026;-75
2021/12/07 13:28:29;;;;;;;6.00;0.20;;;6.20;99.90;;;;;;4995266;28;20057;-75
2021/12/07 13:30:55;;;;;;;4.00;0.98;;;6.20;99.90;;;;;;4994788;28;20105;-75
2021/12/07 13:33:30;;;;;;;10.27;0.52;;;6.10;99.90;;;;;;4994478;28;20113;-75
2021/12/07 13:35:56;;;;;;;4.90;0.55;;;6.00;99.90;;;;;;4994578;28;20030;-75
2021/12/07 13:38:24;;;;;;;10.02;1.23;;;5.90;99.90;;;;;;4977228;28;20022;-75
2021/12/07 13:41:11;;;;;;;6.77;0.93;;;5.90;99.90;;;;;;4977007;28;20499;-75
2021/12/07 13:43:37;;;;;;;7.97;0.30;;;5.90;99.90;;;;;;4993860;28;20030;-75
2021/12/07 13:46:35;;;;;;;6.40;0.52;;;5.80;99.90;;;;;;4994654;28;20022;-75
2021/12/07 13:49:07;;;;;;;13.02;1.30;;;5.80;99.90;;;;;;4979624;28;20507;-75
2021/12/07 13:51:36;;;;;;;5.95;0.75;;;5.80;99.90;;;;;;4994817;28;20108;-75
2021/12/07 13:54:04;;;;;;;;;;;5.70;99.90;;;;;;4977802;28;20022;-75
2021/12/07 13:56:38;;;;;;;5.95;1.25;;;5.70;99.90;;;;;;4977509;28;19973;-75
2021/12/07 13:59:06;;;;;;;8.55;0.88;;;5.60;99.90;;;;;;4995256;28;20379;-75
2021/12/07 14:01:35;;;;;;;8.13;0.45;;;5.60;99.90;;;;;;4976755;28;20033;-75
2021/12/07 14:04:02;;;;;;;9.05;1.27;;;5.60;99.90;;;;;;4994166;28;20094;-75
2021/12/07 14:06:28;;;;;;;6.03;0.40;;;5.60;99.90;;;;;;4994335;28;20030;-75
2021/12/07 14:09:03;;;;;;;5.65;0.80;;;5.60;99.90;;;;;;4994681;28;20030;-74
2021/12/07 14:11:29;;;;;;;8.20;1.67;;;5.50;99.90;;;;;;4995235;28;20054;-74
2021/12/07 14:13:55;;;;;;;2.90;0.32;;;5.50;99.90;;;;;;4995121;28;20502;-74
2021/12/07 14:16:23;;;;;;;4.93;0.70;;;5.40;99.90;;;;;;4994541;28;20039;-74
2021/12/07 14:18:49;;;;;;;9.13;0.75;;;5.40;99.90;;;;;;4994656;28;20019;-75
2021/12/07 14:21:15;;;;;;;10.95;1.27;;;5.40;99.90;;;;;;4977080;28;20030;-75
2021/12/07 14:23:43;;;;;;;4.05;1.05;;;5.30;99.90;;;;;;4994259;28;20026;-75
2021/12/07 14:26:17;;;;;;;6.80;0.37;;;5.30;99.90;;;;;;4994712;28;20027;-75
2021/12/07 14:28:50;;;;;;;5.10;1.15;;;5.30;99.90;;;;;;4981027;28;20274;-74
2021/12/07 14:31:17;;;;;;;5.57;0.88;;;5.20;99.90;;;;;;4998704;28;20083;-75
2021/12/07 14:33:46;;;;;;;4.47;0.70;;;5.20;99.90;;;;;;4998229;28;20027;-75
2021/12/07 14:36:14;;;;;;;12.82;1.40;;;5.20;99.90;;;;;;4980965;28;20034;-75
2021/12/07 14:38:40;;;;;;;7.40;0.70;;;5.10;99.90;;;;;;4999097;28;20143;-74
2021/12/07 14:41:12;;;;;;;7.38;0.77;;;5.10;99.90;;;;;;4981684;28;20635;-75
2021/12/07 14:43:39;;;;;;;11.63;1.58;;;5.10;99.90;;;;;;4998915;28;20519;-75
2021/12/07 14:46:09;;;;;;;9.57;0.60;;;5.10;99.90;;;;;;4999556;28;20101;-75